createdAt,value
2019-02-10T00:00:36.828Z,43.37
2019-02-10T00:03:04.022Z,43.36
2019-02-10T00:05:31.241Z,43.37
2019-02-10T00:07:58.468Z,43.36
2019-02-10T00:10:25.742Z,43.38
2019-02-10T00:13:27.275Z,43.40
2019-02-10T00:15:54.593Z,43.32
2019-02-10T00:18:21.851Z,43.34
2019-02-10T00:20:49.069Z,43.33
2019-02-10T00:23:16.247Z,43.35
2019-02-10T00:25:43.467Z,43.33
2019-02-10T00:28:10.662Z,43.37
2019-02-10T00:30:37.857Z,43.37
2019-02-10T00:33:05.139Z,43.31
2019-02-10T00:35:32.316Z,43.40
2019-02-10T00:37:59.545Z,43.40
2019-02-10T00:40:26.791Z,43.38
2019-02-10T00:42:53.986Z,43.38
2019-02-10T00:45:21.257Z,43.36
2019-02-10T00:47:48.435Z,43.37
2019-02-10T00:50:15.656Z,43.37
2019-02-10T00:52:42.835Z,43.36
2019-02-10T00:55:10.079Z,43.32
2019-02-10T00:57:37.246Z,43.34
2019-02-10T01:00:04.631Z,43.37
2019-02-10T01:02:31.770Z,43.32
2019-02-10T01:04:58.948Z,43.31
2019-02-10T01:07:26.114Z,43.30
2019-02-10T01:09:53.303Z,43.33
2019-02-10T01:12:20.619Z,43.30
2019-02-10T01:14:47.842Z,43.35
2019-02-10T01:17:15.080Z,43.34
2019-02-10T01:19:42.299Z,43.33
2019-02-10T01:22:09.468Z,43.36
2019-02-10T01:24:36.693Z,43.29
2019-02-10T01:27:04.231Z,43.33
2019-02-10T01:29:31.427Z,43.35
2019-02-10T01:31:58.591Z,43.33
2019-02-10T01:34:25.806Z,43.36
2019-02-10T01:36:52.985Z,43.36
2019-02-10T01:39:24.193Z,43.36
2019-02-10T01:41:51.383Z,43.43
2019-02-10T01:44:18.561Z,43.42
2019-02-10T01:46:45.738Z,43.44
2019-02-10T01:49:12.976Z,43.42
2019-02-10T01:51:40.130Z,43.43
2019-02-10T01:54:07.354Z,43.40
2019-02-10T01:56:34.554Z,43.41
2019-02-10T01:59:01.739Z,43.42
2019-02-10T02:01:28.962Z,43.38
2019-02-10T02:03:56.145Z,43.35
2019-02-10T02:06:23.403Z,43.35
2019-02-10T02:08:50.573Z,43.37
2019-02-10T02:11:17.770Z,43.34
2019-02-10T02:13:44.962Z,43.40
2019-02-10T02:16:12.187Z,43.44
2019-02-10T02:18:39.414Z,43.38
2019-02-10T02:21:06.554Z,43.39
2019-02-10T02:23:33.806Z,43.44
2019-02-10T02:26:01.007Z,43.38
2019-02-10T02:28:28.180Z,43.40
2019-02-10T02:30:55.367Z,43.35
2019-02-10T02:33:22.571Z,43.37
2019-02-10T02:35:49.786Z,43.36
2019-02-10T02:38:16.967Z,43.39
2019-02-10T02:40:44.189Z,43.40
2019-02-10T02:43:11.391Z,43.42
2019-02-10T02:45:38.615Z,43.43
2019-02-10T02:48:05.810Z,43.41
2019-02-10T02:50:33.045Z,43.44
2019-02-10T02:53:00.267Z,43.47
2019-02-10T02:55:27.444Z,43.47
2019-02-10T02:57:54.644Z,43.47
2019-02-10T03:00:21.823Z,43.51
2019-02-10T03:02:49.142Z,43.48
2019-02-10T03:05:16.411Z,43.45
2019-02-10T03:07:43.614Z,43.45
2019-02-10T03:10:11.789Z,43.51
2019-02-10T03:12:38.919Z,43.53
2019-02-10T03:15:06.279Z,43.51
2019-02-10T03:17:33.527Z,43.52
2019-02-10T03:20:00.727Z,43.54
2019-02-10T03:22:27.951Z,43.55
2019-02-10T03:24:55.218Z,43.59
2019-02-10T03:27:22.417Z,43.55
2019-02-10T03:29:49.581Z,43.56
2019-02-10T03:32:16.821Z,43.56
2019-02-10T03:34:43.977Z,43.54
2019-02-10T03:37:11.225Z,43.51
2019-02-10T03:39:38.432Z,43.56
2019-02-10T03:42:05.634Z,43.54
2019-02-10T03:44:32.857Z,43.57
2019-02-10T03:47:00.082Z,43.60
2019-02-10T03:49:27.275Z,43.55
2019-02-10T03:51:54.455Z,43.56
2019-02-10T03:54:21.647Z,43.58
2019-02-10T03:56:48.871Z,43.60
2019-02-10T03:59:16.069Z,43.56
2019-02-10T04:01:43.341Z,43.58
2019-02-10T04:04:10.502Z,43.58
2019-02-10T04:06:37.709Z,43.63
2019-02-10T04:09:05.300Z,43.64
2019-02-10T04:11:32.484Z,43.67
2019-02-10T04:13:59.660Z,43.63
2019-02-10T04:16:26.854Z,43.72
2019-02-10T04:18:54.040Z,43.74
2019-02-10T04:21:21.237Z,43.72
2019-02-10T04:23:48.423Z,43.73
2019-02-10T04:26:15.637Z,43.70
2019-02-10T04:28:42.878Z,43.58
2019-02-10T04:31:10.051Z,43.48
2019-02-10T04:33:37.251Z,43.37
2019-02-10T04:36:04.518Z,43.30
2019-02-10T04:38:31.714Z,43.29
2019-02-10T04:40:58.901Z,43.24
2019-02-10T04:43:26.078Z,43.17
2019-02-10T04:45:53.328Z,43.18
2019-02-10T04:48:20.669Z,43.25
2019-02-10T04:50:47.881Z,43.19
2019-02-10T04:53:15.075Z,43.13
2019-02-10T04:55:42.294Z,43.07
2019-02-10T04:58:09.521Z,43.00
2019-02-10T05:00:36.850Z,42.97
2019-02-10T05:03:04.048Z,42.99
2019-02-10T05:05:31.296Z,42.89
2019-02-10T05:07:58.624Z,42.85
2019-02-10T05:10:25.810Z,42.81
2019-02-10T05:12:52.982Z,42.75
2019-02-10T05:15:20.206Z,42.68
2019-02-10T05:17:47.409Z,42.61
2019-02-10T05:20:14.572Z,42.58
2019-02-10T05:22:41.790Z,42.52
2019-02-10T05:25:08.978Z,42.51
2019-02-10T05:27:36.172Z,42.49
2019-02-10T05:30:03.395Z,42.49
2019-02-10T05:32:30.710Z,42.42
2019-02-10T05:34:57.902Z,42.41
2019-02-10T05:37:25.153Z,42.38
2019-02-10T05:39:52.393Z,42.37
2019-02-10T05:42:19.613Z,42.35
2019-02-10T05:44:46.809Z,42.32
2019-02-10T05:47:13.970Z,42.29
2019-02-10T05:49:41.163Z,42.34
2019-02-10T05:52:08.372Z,42.35
2019-02-10T05:54:35.622Z,42.33
2019-02-10T05:57:02.785Z,42.31
2019-02-10T05:59:29.942Z,42.28
2019-02-10T06:02:02.529Z,42.27
2019-02-10T06:04:31.092Z,42.31
2019-02-10T06:07:00.566Z,42.31
2019-02-10T06:09:27.791Z,42.32
2019-02-10T06:11:55.019Z,42.29
2019-02-10T06:14:22.220Z,42.31
2019-02-10T06:16:49.413Z,42.32
2019-02-10T06:19:16.559Z,42.34
2019-02-10T06:21:43.817Z,42.33
2019-02-10T06:24:10.990Z,42.37
2019-02-10T06:26:38.195Z,42.43
2019-02-10T06:29:05.430Z,42.38
2019-02-10T06:31:32.746Z,42.37
2019-02-10T06:33:59.972Z,42.41
2019-02-10T06:36:27.172Z,42.37
2019-02-10T06:38:54.438Z,42.38
2019-02-10T06:41:21.630Z,42.40
2019-02-10T06:43:48.842Z,42.42
2019-02-10T06:46:16.062Z,42.38
2019-02-10T06:48:43.391Z,42.39
2019-02-10T06:51:10.574Z,42.36
2019-02-10T06:53:37.842Z,42.38
2019-02-10T06:56:05.058Z,42.45
2019-02-10T06:58:32.271Z,42.46
2019-02-10T07:01:22.095Z,42.41
2019-02-10T07:04:07.505Z,42.44
2019-02-10T07:06:34.813Z,42.44
2019-02-10T07:09:01.970Z,42.41
2019-02-10T07:11:29.159Z,42.39
2019-02-10T07:14:00.749Z,42.43
2019-02-10T07:16:46.799Z,42.41
2019-02-10T07:19:50.780Z,42.37
2019-02-10T07:22:55.879Z,42.43
2019-02-10T07:25:48.535Z,42.40
2019-02-10T07:29:02.858Z,42.38
2019-02-10T07:31:38.847Z,42.39
2019-02-10T07:34:48.657Z,42.38
2019-02-10T07:38:06.808Z,42.37
2019-02-10T07:41:15.880Z,42.33
2019-02-10T07:44:20.543Z,42.34
2019-02-10T07:47:03.521Z,42.40
2019-02-10T07:50:13.386Z,42.36
2019-02-10T07:53:15.105Z,42.35
2019-02-10T07:56:18.036Z,42.36
2019-02-10T07:58:58.156Z,42.37
2019-02-10T08:01:39.026Z,42.35
2019-02-10T08:04:38.769Z,42.37
2019-02-10T08:07:32.800Z,42.39
2019-02-10T08:10:12.573Z,42.38
2019-02-10T08:13:30.222Z,42.37
2019-02-10T08:16:19.812Z,42.37
2019-02-10T08:19:34.952Z,42.38
2019-02-10T08:22:44.065Z,42.42
2019-02-10T08:25:52.233Z,42.40
2019-02-10T08:28:42.086Z,42.40
2019-02-10T08:31:36.466Z,42.38
2019-02-10T08:34:48.539Z,42.39
2019-02-10T08:37:37.666Z,42.45
2019-02-10T08:40:51.558Z,42.44
2019-02-10T08:43:52.562Z,42.47
2019-02-10T08:46:56.871Z,42.43
2019-02-10T08:50:04.658Z,42.43
2019-02-10T08:52:51.862Z,42.40
2019-02-10T08:55:17.995Z,42.39
2019-02-10T08:57:45.162Z,42.35
2019-02-10T09:00:12.386Z,42.38
2019-02-10T09:02:39.629Z,42.42
2019-02-10T09:05:06.848Z,42.41
2019-02-10T09:07:34.034Z,42.41
2019-02-10T09:10:01.254Z,42.36
2019-02-10T09:12:28.470Z,42.36
2019-02-10T09:14:55.702Z,42.35
2019-02-10T09:17:22.914Z,42.31
2019-02-10T09:19:50.099Z,42.32
2019-02-10T09:22:17.415Z,42.34
2019-02-10T09:24:44.623Z,42.32
2019-02-10T09:27:11.838Z,42.33
2019-02-10T09:29:39.096Z,42.39
2019-02-10T09:32:06.286Z,42.42
2019-02-10T09:34:33.479Z,42.44
2019-02-10T09:37:00.730Z,42.41
2019-02-10T09:39:27.894Z,42.36
2019-02-10T09:41:55.113Z,42.33
2019-02-10T09:44:22.436Z,42.31
2019-02-10T09:46:49.630Z,42.33
2019-02-10T09:49:16.778Z,42.34
2019-02-10T09:51:43.992Z,42.33
2019-02-10T09:54:11.204Z,42.32
2019-02-10T09:56:38.396Z,42.34
2019-02-10T09:59:05.643Z,42.34
2019-02-10T10:01:32.847Z,42.32
2019-02-10T10:04:00.086Z,42.34
2019-02-10T10:06:27.311Z,42.32
2019-02-10T10:08:54.506Z,42.35
2019-02-10T10:11:21.671Z,42.32
2019-02-10T10:13:48.865Z,42.31
2019-02-10T10:16:16.131Z,42.31
2019-02-10T10:18:43.285Z,42.31
2019-02-10T10:21:10.511Z,42.32
2019-02-10T10:23:37.699Z,42.40
2019-02-10T10:26:04.906Z,42.35
2019-02-10T10:28:32.115Z,42.35
2019-02-10T10:30:59.364Z,42.35
2019-02-10T10:33:26.602Z,42.32
2019-02-10T10:35:53.805Z,42.31
2019-02-10T10:38:21.043Z,42.32
2019-02-10T10:40:48.359Z,42.33
2019-02-10T10:43:15.574Z,42.35
2019-02-10T10:45:42.767Z,42.37
2019-02-10T10:48:09.980Z,42.33
2019-02-10T10:50:37.173Z,42.38
2019-02-10T10:53:04.370Z,42.36
2019-02-10T10:55:31.570Z,42.37
2019-02-10T10:57:58.919Z,42.35
2019-02-10T11:00:26.230Z,42.34
2019-02-10T11:02:53.434Z,42.33
2019-02-10T11:05:20.671Z,42.36
2019-02-10T11:07:47.860Z,42.38
2019-02-10T11:10:15.003Z,42.38
2019-02-10T11:12:42.219Z,42.40
2019-02-10T11:15:09.795Z,42.37
2019-02-10T11:17:36.973Z,42.35
2019-02-10T11:20:04.632Z,42.35
2019-02-10T11:22:31.884Z,42.35
2019-02-10T11:24:59.173Z,42.39
2019-02-10T11:27:26.337Z,42.34
2019-02-10T11:29:53.548Z,42.30
2019-02-10T11:32:20.745Z,42.29
2019-02-10T11:34:47.945Z,42.29
2019-02-10T11:37:15.175Z,42.25
2019-02-10T11:39:43.952Z,42.23
2019-02-10T11:42:11.422Z,42.24
2019-02-10T11:44:38.636Z,42.27
2019-02-10T11:47:05.869Z,42.25
2019-02-10T11:49:33.072Z,42.34
2019-02-10T11:52:00.298Z,42.32
2019-02-10T11:54:27.482Z,42.31
2019-02-10T11:56:54.691Z,42.27
2019-02-10T11:59:21.889Z,42.25
2019-02-10T12:01:49.128Z,42.29
2019-02-10T12:04:16.356Z,42.33
2019-02-10T12:06:43.575Z,42.34
2019-02-10T12:09:10.771Z,42.34
2019-02-10T12:11:38.013Z,42.36
2019-02-10T12:14:05.198Z,42.33
2019-02-10T12:16:32.517Z,42.26
2019-02-10T12:18:59.925Z,42.24
2019-02-10T12:21:27.071Z,42.25
2019-02-10T12:23:54.291Z,42.24
2019-02-10T12:26:21.531Z,42.22
2019-02-10T12:28:48.705Z,42.22
2019-02-10T12:31:15.935Z,42.26
2019-02-10T12:33:43.226Z,42.24
2019-02-10T12:36:10.490Z,42.21
2019-02-10T12:38:37.690Z,42.20
2019-02-10T12:41:05.061Z,42.24
2019-02-10T12:43:32.361Z,42.24
2019-02-10T12:45:59.678Z,42.26
2019-02-10T12:48:28.433Z,42.29
2019-02-10T12:50:55.864Z,42.34
2019-02-10T12:53:23.252Z,42.37
2019-02-10T12:55:50.683Z,42.41
2019-02-10T12:58:18.105Z,42.40
2019-02-10T13:00:45.339Z,42.40
2019-02-10T13:03:12.622Z,42.39
2019-02-10T13:05:39.834Z,42.41
2019-02-10T13:08:07.113Z,42.40
2019-02-10T13:10:34.395Z,42.42
2019-02-10T13:13:01.581Z,42.44
2019-02-10T13:15:29.154Z,42.48
2019-02-10T13:17:56.524Z,42.50
2019-02-10T13:20:23.742Z,42.59
2019-02-10T13:22:50.901Z,42.65
2019-02-10T13:25:18.147Z,42.63
2019-02-10T13:27:45.373Z,42.60
2019-02-10T13:30:12.930Z,42.58
2019-02-10T13:32:40.127Z,42.62
2019-02-10T13:35:07.501Z,42.66
2019-02-10T13:37:34.950Z,42.67
2019-02-10T13:40:02.475Z,42.62
2019-02-10T13:42:29.803Z,42.51
2019-02-10T13:44:57.282Z,42.52
2019-02-10T13:47:24.502Z,42.50
2019-02-10T13:49:51.821Z,42.45
2019-02-10T13:52:19.248Z,42.46
2019-02-10T13:54:46.521Z,42.45
2019-02-10T13:57:13.898Z,42.40
2019-02-10T13:59:41.171Z,42.37
2019-02-10T14:02:11.772Z,42.33
2019-02-10T14:04:40.273Z,42.31
2019-02-10T14:07:07.635Z,42.28
2019-02-10T14:09:34.881Z,42.29
2019-02-10T14:12:02.274Z,42.21
2019-02-10T14:14:29.694Z,42.12
2019-02-10T14:16:57.030Z,42.09
2019-02-10T14:19:24.367Z,42.08
2019-02-10T14:21:51.717Z,42.05
2019-02-10T14:24:19.083Z,42.04
2019-02-10T14:26:46.357Z,42.06
2019-02-10T14:29:13.612Z,42.05
2019-02-10T14:31:40.967Z,42.08
2019-02-10T14:34:08.427Z,42.14
2019-02-10T14:36:35.843Z,42.13
2019-02-10T14:39:04.699Z,42.15
2019-02-10T14:41:32.227Z,42.20
2019-02-10T14:43:59.634Z,42.14
2019-02-10T14:46:26.978Z,42.13
2019-02-10T14:48:54.404Z,42.11
2019-02-10T14:51:21.922Z,42.14
2019-02-10T14:53:49.395Z,42.15
2019-02-10T14:56:16.842Z,42.19
2019-02-10T14:58:45.000Z,42.18
2019-02-10T15:01:12.462Z,42.24
2019-02-10T15:03:40.225Z,42.34
2019-02-10T15:06:07.665Z,42.35
2019-02-10T15:08:35.018Z,42.33
2019-02-10T15:11:02.455Z,42.29
2019-02-10T15:13:29.949Z,42.34
2019-02-10T15:15:57.407Z,42.35
2019-02-10T15:18:27.730Z,42.39
2019-02-10T15:20:55.153Z,42.39
2019-02-10T15:23:22.544Z,42.39
2019-02-10T15:25:49.996Z,42.45
2019-02-10T15:28:17.403Z,42.47
2019-02-10T15:30:44.889Z,42.47
2019-02-10T15:33:12.481Z,42.43
2019-02-10T15:35:42.330Z,42.43
2019-02-10T15:38:09.736Z,42.49
2019-02-10T15:40:37.202Z,42.53
2019-02-10T15:43:05.809Z,42.55
2019-02-10T15:45:33.225Z,42.57
2019-02-10T15:48:00.661Z,42.62
2019-02-10T15:50:28.142Z,42.65
2019-02-10T15:52:55.600Z,42.69
2019-02-10T15:55:22.963Z,42.68
2019-02-10T15:57:50.670Z,42.71
2019-02-10T16:00:21.458Z,42.67
2019-02-10T16:02:49.008Z,42.66
2019-02-10T16:05:16.384Z,42.74
2019-02-10T16:07:43.804Z,42.76
2019-02-10T16:10:11.452Z,42.81
2019-02-10T16:12:38.855Z,42.86
2019-02-10T16:15:10.910Z,42.89
2019-02-10T16:17:38.328Z,42.83
2019-02-10T16:20:07.488Z,42.81
2019-02-10T16:22:34.942Z,42.82
2019-02-10T16:25:04.358Z,42.81
2019-02-10T16:27:31.802Z,42.84
2019-02-10T16:29:59.274Z,42.88
2019-02-10T16:32:26.787Z,42.84
2019-02-10T16:34:54.183Z,42.87
2019-02-10T16:37:21.629Z,42.82
2019-02-10T16:39:49.032Z,42.88
2019-02-10T16:42:16.682Z,42.88
2019-02-10T16:44:44.143Z,42.87
2019-02-10T16:47:11.630Z,42.89
2019-02-10T16:49:39.056Z,42.89
2019-02-10T16:52:06.596Z,42.86
2019-02-10T16:54:34.153Z,42.86
2019-02-10T16:57:01.601Z,42.86
2019-02-10T16:59:29.096Z,42.89
2019-02-10T17:01:56.537Z,42.87
2019-02-10T17:04:23.924Z,42.83
2019-02-10T17:06:51.383Z,42.85
2019-02-10T17:09:18.837Z,42.85
2019-02-10T17:11:46.291Z,42.88
2019-02-10T17:14:13.719Z,42.92
2019-02-10T17:16:41.127Z,42.93
2019-02-10T17:19:08.661Z,42.94
2019-02-10T17:21:36.088Z,42.94
2019-02-10T17:24:03.497Z,42.94
2019-02-10T17:26:30.969Z,42.92
2019-02-10T17:28:58.351Z,42.89
2019-02-10T17:31:25.782Z,42.92
2019-02-10T17:33:53.344Z,42.94
2019-02-10T17:36:20.801Z,42.91
2019-02-10T17:38:48.172Z,42.95
2019-02-10T17:41:22.963Z,42.96
2019-02-10T17:43:48.148Z,42.92
2019-02-10T17:46:15.426Z,42.97
2019-02-10T17:48:42.856Z,42.97
2019-02-10T17:51:10.898Z,42.97
2019-02-10T17:53:38.346Z,42.97
2019-02-10T17:56:05.775Z,43.03
2019-02-10T17:58:33.165Z,43.06
2019-02-10T18:01:00.717Z,43.06
2019-02-10T18:03:28.167Z,43.00
2019-02-10T18:05:55.605Z,42.97
2019-02-10T18:08:23.153Z,43.00
2019-02-10T18:10:52.877Z,43.00
2019-02-10T18:13:20.334Z,42.96
2019-02-10T18:16:16.309Z,42.95
2019-02-10T18:19:10.817Z,42.95
2019-02-10T18:22:06.765Z,42.98
2019-02-10T18:24:44.696Z,43.02
2019-02-10T18:27:37.150Z,43.13
2019-02-10T18:30:31.698Z,43.22
2019-02-10T18:33:17.479Z,43.21
2019-02-10T18:36:03.080Z,43.17
2019-02-10T18:38:38.690Z,43.27
2019-02-10T18:41:24.565Z,43.29
2019-02-10T18:44:10.414Z,43.19
2019-02-10T18:46:54.039Z,43.19
2019-02-10T18:49:32.662Z,43.36
2019-02-10T18:52:28.813Z,43.32
2019-02-10T18:55:19.408Z,43.39
2019-02-10T18:58:06.363Z,43.38
2019-02-10T19:00:53.317Z,43.42
2019-02-10T19:03:38.927Z,43.43
2019-02-10T19:06:28.783Z,43.48
2019-02-10T19:09:15.512Z,43.29
2019-02-10T19:12:07.911Z,43.62
2019-02-10T19:14:51.487Z,43.56
2019-02-10T19:17:28.127Z,43.67
2019-02-10T19:20:16.164Z,43.64
2019-02-10T19:23:01.532Z,43.65
2019-02-10T19:25:39.575Z,43.65
2019-02-10T19:28:26.318Z,43.84
2019-02-10T19:31:13.196Z,43.75
2019-02-10T19:33:58.889Z,43.87
2019-02-10T19:36:44.675Z,43.95
2019-02-10T19:39:31.661Z,43.76
2019-02-10T19:42:17.297Z,43.80
2019-02-10T19:45:11.211Z,43.57
2019-02-10T19:48:00.903Z,43.82
2019-02-10T19:50:52.493Z,43.86
2019-02-10T19:53:28.928Z,43.94
2019-02-10T19:56:23.995Z,43.85
2019-02-10T19:59:12.334Z,44.02
2019-02-10T20:02:11.210Z,44.05
2019-02-10T20:05:04.352Z,44.20
2019-02-10T20:07:51.332Z,44.35
2019-02-10T20:10:37.346Z,44.23
2019-02-10T20:13:20.674Z,44.39
2019-02-10T20:15:54.779Z,44.43
2019-02-10T20:18:39.995Z,44.43
2019-02-10T20:21:21.295Z,44.50
2019-02-10T20:23:57.549Z,44.73
2019-02-10T20:26:44.855Z,44.64
2019-02-10T20:29:31.892Z,44.74
2019-02-10T20:32:24.430Z,44.82
2019-02-10T20:35:06.718Z,44.98
2019-02-10T20:37:56.365Z,45.03
2019-02-10T20:40:39.923Z,45.03
2019-02-10T20:43:29.679Z,45.04
2019-02-10T20:46:16.709Z,45.19
2019-02-10T20:49:02.485Z,45.21
2019-02-10T20:51:52.275Z,45.35
2019-02-10T20:54:35.588Z,45.26
2019-02-10T20:57:25.708Z,45.30
2019-02-10T21:00:02.776Z,45.31
2019-02-10T21:03:01.627Z,45.33
2019-02-10T21:06:02.145Z,45.43
2019-02-10T21:08:35.935Z,45.26
2019-02-10T21:11:25.867Z,45.22
2019-02-10T21:14:18.621Z,45.47
2019-02-10T21:17:04.567Z,45.82
2019-02-10T21:19:54.464Z,45.79
2019-02-10T21:22:47.023Z,45.88
2019-02-10T21:25:33.988Z,45.99
2019-02-10T21:28:10.293Z,45.98
2019-02-10T21:30:55.974Z,46.07
2019-02-10T21:33:54.922Z,46.09
2019-02-10T21:36:30.590Z,46.27
2019-02-10T21:39:08.685Z,46.18
2019-02-10T21:41:47.157Z,46.16
2019-02-10T21:44:49.231Z,46.20
2019-02-10T21:47:22.365Z,46.13
2019-02-10T21:49:49.595Z,46.16
2019-02-10T21:52:16.939Z,46.13
2019-02-10T21:54:44.165Z,46.05
2019-02-10T21:57:12.655Z,46.44
2019-02-10T21:59:39.989Z,46.73
2019-02-10T22:02:08.130Z,46.62
2019-02-10T22:04:40.135Z,46.58
2019-02-10T22:07:07.846Z,46.70
2019-02-10T22:09:36.645Z,46.68
2019-02-10T22:12:04.676Z,46.76
2019-02-10T22:14:32.043Z,46.76
2019-02-10T22:16:59.532Z,46.76
2019-02-10T22:19:26.863Z,46.79
2019-02-10T22:21:54.108Z,46.88
2019-02-10T22:24:21.316Z,46.84
2019-02-10T22:26:48.590Z,46.86
2019-02-10T22:29:15.848Z,46.53
2019-02-10T22:31:43.387Z,46.51
2019-02-10T22:34:10.610Z,46.57
2019-02-10T22:36:37.855Z,46.94
2019-02-10T22:39:05.226Z,46.80
2019-02-10T22:41:32.504Z,46.84
2019-02-10T22:43:59.799Z,47.12
2019-02-10T22:46:27.209Z,46.91
2019-02-10T22:48:54.426Z,46.92
2019-02-10T22:51:21.636Z,46.95
2019-02-10T22:53:48.845Z,46.92
2019-02-10T22:56:16.216Z,47.26
2019-02-10T22:58:43.396Z,46.92
2019-02-10T23:01:10.626Z,47.03
2019-02-10T23:03:37.953Z,46.83
2019-02-10T23:06:05.144Z,46.85
2019-02-10T23:08:32.327Z,46.98
2019-02-10T23:10:59.532Z,46.86
2019-02-10T23:13:26.866Z,46.69
2019-02-10T23:15:54.095Z,46.89
2019-02-10T23:18:21.375Z,47.03
2019-02-10T23:20:48.615Z,46.87
2019-02-10T23:23:15.786Z,47.03
2019-02-10T23:25:43.006Z,47.20
2019-02-10T23:28:10.347Z,47.11
2019-02-10T23:30:37.585Z,47.00
2019-02-10T23:33:04.799Z,47.11
2019-02-10T23:35:32.114Z,47.02
2019-02-10T23:37:59.384Z,47.14
2019-02-10T23:40:26.578Z,47.06
2019-02-10T23:43:01.692Z,47.12
2019-02-10T23:45:23.031Z,47.34
2019-02-10T23:47:50.318Z,47.31
2019-02-10T23:50:17.572Z,47.21
2019-02-10T23:52:44.887Z,47.38
2019-02-10T23:55:12.094Z,47.27
2019-02-10T23:57:39.292Z,47.24
